createdAt,value
2022-09-28T00:00:47.611Z,10.83
2022-09-28T00:03:14.198Z,10.84
2022-09-28T00:05:40.926Z,10.89
2022-09-28T00:08:07.615Z,10.93
2022-09-28T00:10:34.166Z,10.97
2022-09-28T00:13:01.525Z,10.92
2022-09-28T00:15:28.171Z,10.95
2022-09-28T00:17:54.828Z,10.94
2022-09-28T00:20:22.808Z,10.94
2022-09-28T00:22:49.488Z,10.95
2022-09-28T00:25:17.020Z,11.06
2022-09-28T00:27:43.744Z,11.10
2022-09-28T00:30:10.555Z,11.09
2022-09-28T00:32:37.262Z,11.07
2022-09-28T00:35:03.863Z,11.09
2022-09-28T00:37:30.444Z,11.10
2022-09-28T00:39:57.093Z,11.12
2022-09-28T00:42:24.907Z,11.13
2022-09-28T00:44:56.094Z,11.11
2022-09-28T00:47:42.358Z,11.13
2022-09-28T00:50:24.268Z,11.12
2022-09-28T00:53:01.296Z,11.11
2022-09-28T00:55:48.259Z,11.08
2022-09-28T00:58:18.668Z,11.05
2022-09-28T01:00:45.946Z,11.00
2022-09-28T01:03:14.309Z,10.98
2022-09-28T01:05:41.050Z,10.91
2022-09-28T01:08:08.772Z,10.90
2022-09-28T01:10:35.398Z,10.93
2022-09-28T01:13:02.242Z,10.98
2022-09-28T01:15:30.001Z,11.03
2022-09-28T01:17:58.151Z,11.06
2022-09-28T01:20:42.343Z,11.13
2022-09-28T01:23:13.057Z,11.18
2022-09-28T01:25:55.362Z,11.17
2022-09-28T01:28:25.817Z,11.17
2022-09-28T01:31:11.465Z,11.15
2022-09-28T01:33:51.674Z,11.14
2022-09-28T01:36:20.675Z,11.15
2022-09-28T01:38:49.157Z,11.15
2022-09-28T01:41:17.928Z,11.17
2022-09-28T01:43:51.546Z,11.18
2022-09-28T01:46:20.476Z,11.19
2022-09-28T01:48:54.679Z,11.20
2022-09-28T01:51:27.932Z,11.23
2022-09-28T01:53:57.727Z,11.24
2022-09-28T01:56:26.914Z,11.26
2022-09-28T01:58:56.689Z,11.28
2022-09-28T02:01:27.449Z,11.30
2022-09-28T02:03:59.281Z,11.36
2022-09-28T02:06:36.264Z,11.37
2022-09-28T02:09:05.845Z,11.46
2022-09-28T02:11:43.052Z,11.51
2022-09-28T02:14:11.720Z,11.57
2022-09-28T02:16:43.295Z,11.61
2022-09-28T02:19:11.818Z,11.67
2022-09-28T02:21:38.468Z,11.66
2022-09-28T02:24:11.018Z,11.66
2022-09-28T02:26:40.436Z,11.63
2022-09-28T02:29:07.158Z,11.62
2022-09-28T02:31:34.072Z,11.61
2022-09-28T02:34:00.889Z,11.60
2022-09-28T02:36:28.638Z,11.57
2022-09-28T02:38:57.326Z,11.55
2022-09-28T02:41:24.326Z,11.55
2022-09-28T02:43:54.340Z,11.55
2022-09-28T02:46:21.612Z,11.56
2022-09-28T02:49:04.866Z,11.57
2022-09-28T02:52:01.343Z,11.55
2022-09-28T02:54:38.408Z,11.52
2022-09-28T02:57:10.898Z,11.47
2022-09-28T02:59:46.291Z,11.42
2022-09-28T03:02:32.136Z,11.36
2022-09-28T03:05:14.701Z,11.29
2022-09-28T03:08:00.166Z,11.18
2022-09-28T03:10:39.357Z,11.12
2022-09-28T03:13:06.158Z,11.11
2022-09-28T03:15:35.449Z,11.05
2022-09-28T03:18:02.758Z,10.99
2022-09-28T03:20:30.102Z,10.94
2022-09-28T03:23:22.879Z,10.88
2022-09-28T03:25:43.558Z,10.84
2022-09-28T03:28:10.166Z,10.73
2022-09-28T03:30:39.746Z,10.74
2022-09-28T03:33:07.076Z,10.70
2022-09-28T03:35:33.805Z,10.68
2022-09-28T03:38:00.540Z,10.68
2022-09-28T03:40:29.818Z,10.67
2022-09-28T03:42:56.675Z,10.70
2022-09-28T03:45:25.133Z,10.73
2022-09-28T03:47:52.337Z,10.77
2022-09-28T03:50:18.969Z,10.81
2022-09-28T03:52:45.580Z,10.88
2022-09-28T03:55:12.617Z,10.89
2022-09-28T03:57:39.218Z,10.91
2022-09-28T04:00:06.659Z,10.91
2022-09-28T04:02:40.576Z,10.90
2022-09-28T04:05:08.233Z,10.86
2022-09-28T04:07:35.088Z,10.85
2022-09-28T04:10:01.720Z,10.82
2022-09-28T04:12:30.392Z,10.79
2022-09-28T04:14:57.239Z,10.82
2022-09-28T04:17:23.861Z,10.87
2022-09-28T04:19:50.711Z,10.91
2022-09-28T04:22:37.814Z,10.97
2022-09-28T04:25:04.814Z,10.99
2022-09-28T04:27:50.209Z,11.01
2022-09-28T04:30:17.129Z,11.03
2022-09-28T04:32:48.446Z,11.05
2022-09-28T04:35:16.907Z,11.07
2022-09-28T04:37:43.587Z,11.07
2022-09-28T04:40:10.373Z,11.08
2022-09-28T04:42:37.890Z,11.09
2022-09-28T04:45:04.982Z,11.05
2022-09-28T04:47:34.933Z,11.10
2022-09-28T04:50:29.680Z,11.12
2022-09-28T04:53:17.431Z,11.16
2022-09-28T04:55:44.883Z,11.15
2022-09-28T04:58:11.571Z,11.13
2022-09-28T05:00:38.172Z,11.06
2022-09-28T05:03:11.741Z,11.01
2022-09-28T05:06:15.246Z,10.94
2022-09-28T05:08:46.980Z,10.88
2022-09-28T05:11:14.331Z,10.82
2022-09-28T05:13:42.246Z,10.76
2022-09-28T05:16:09.389Z,10.71
2022-09-28T05:18:54.361Z,10.65
2022-09-28T05:21:21.241Z,10.62
2022-09-28T05:23:47.839Z,10.61
2022-09-28T05:27:58.342Z,10.65
2022-09-28T05:30:40.782Z,10.70
2022-09-28T05:33:24.852Z,10.83
2022-09-28T05:36:03.705Z,11.06
2022-09-28T05:38:30.655Z,11.23
2022-09-28T05:40:57.565Z,11.38
2022-09-28T05:43:24.274Z,11.49
2022-09-28T05:45:55.292Z,11.56
2022-09-28T05:48:23.067Z,11.54
2022-09-28T05:50:52.760Z,11.49
2022-09-28T05:53:20.487Z,11.36
2022-09-28T05:55:47.117Z,11.23
2022-09-28T05:58:13.778Z,11.29
2022-09-28T06:00:40.418Z,11.57
2022-09-28T06:03:10.275Z,12.00
2022-09-28T06:05:37.585Z,12.55
2022-09-28T06:08:05.412Z,13.11
2022-09-28T06:10:32.748Z,13.59
2022-09-28T06:13:00.751Z,14.03
2022-09-28T06:15:29.018Z,14.37
2022-09-28T06:18:04.628Z,14.76
2022-09-28T06:21:02.695Z,15.11
2022-09-28T06:23:35.633Z,15.09
2022-09-28T06:26:02.358Z,15.32
2022-09-28T06:28:30.361Z,14.98
2022-09-28T06:31:01.645Z,14.61
2022-09-28T06:33:30.372Z,14.26
2022-09-28T06:35:58.952Z,14.15
2022-09-28T06:38:27.572Z,14.10
2022-09-28T06:40:54.310Z,14.27
2022-09-28T06:43:21.704Z,14.39
2022-09-28T06:46:08.335Z,14.33
2022-09-28T06:48:50.322Z,14.23
2022-09-28T06:51:20.732Z,14.34
2022-09-28T06:53:56.946Z,14.35
2022-09-28T06:56:40.612Z,14.35
2022-09-28T06:59:07.353Z,14.35
2022-09-28T07:01:35.623Z,14.38
2022-09-28T07:04:34.830Z,14.28
2022-09-28T07:07:20.041Z,14.32
2022-09-28T07:10:23.331Z,14.29
2022-09-28T07:13:20.563Z,14.20
2022-09-28T07:16:05.949Z,14.02
2022-09-28T07:18:32.558Z,13.84
2022-09-28T07:20:59.754Z,13.65
2022-09-28T07:23:35.373Z,13.44
2022-09-28T07:26:26.090Z,13.41
2022-09-28T07:29:25.895Z,13.47
2022-09-28T07:32:15.865Z,13.53
2022-09-28T07:34:59.100Z,13.74
2022-09-28T07:37:46.285Z,13.78
2022-09-28T07:40:31.392Z,13.70
2022-09-28T07:43:04.605Z,13.58
2022-09-28T07:45:36.772Z,13.66
2022-09-28T07:48:03.957Z,13.68
2022-09-28T07:50:48.309Z,13.62
2022-09-28T07:53:48.185Z,13.47
2022-09-28T07:56:31.081Z,13.32
2022-09-28T07:59:05.071Z,13.21
2022-09-28T08:01:55.155Z,13.00
2022-09-28T08:04:24.014Z,12.86
2022-09-28T08:06:51.170Z,12.88
2022-09-28T08:09:18.742Z,13.12
2022-09-28T08:12:04.373Z,13.32
2022-09-28T08:14:41.470Z,13.38
2022-09-28T08:17:30.191Z,13.48
2022-09-28T08:20:25.871Z,13.63
2022-09-28T08:22:53.543Z,13.84
2022-09-28T08:25:21.141Z,13.97
2022-09-28T08:27:47.932Z,14.23
2022-09-28T08:30:14.947Z,14.39
2022-09-28T08:32:55.899Z,14.42
2022-09-28T08:35:41.846Z,14.60
2022-09-28T08:38:15.446Z,15.03
2022-09-28T08:41:22.179Z,15.62
2022-09-28T08:44:13.800Z,15.71
2022-09-28T08:47:05.913Z,15.73
2022-09-28T08:49:44.335Z,15.69
2022-09-28T08:52:37.391Z,15.68
2022-09-28T08:55:30.036Z,15.54
2022-09-28T08:58:09.068Z,15.43
2022-09-28T09:00:54.526Z,15.50
2022-09-28T09:03:30.717Z,15.45
2022-09-28T09:06:32.242Z,15.62
2022-09-28T09:09:09.386Z,15.62
2022-09-28T09:11:37.027Z,15.69
2022-09-28T09:14:12.907Z,15.82
2022-09-28T09:17:00.632Z,15.84
2022-09-28T09:19:53.922Z,15.88
2022-09-28T09:22:41.114Z,16.08
2022-09-28T09:25:26.572Z,16.26
2022-09-28T09:28:02.511Z,16.35
2022-09-28T09:30:32.544Z,16.49
2022-09-28T09:33:33.985Z,16.52
2022-09-28T09:36:28.116Z,16.56
2022-09-28T09:39:07.126Z,16.53
2022-09-28T09:42:18.155Z,16.39
2022-09-28T09:45:16.653Z,16.42
2022-09-28T09:48:04.614Z,16.48
2022-09-28T09:50:39.575Z,16.43
2022-09-28T09:53:16.347Z,16.44
2022-09-28T09:55:46.908Z,16.57
2022-09-28T09:58:44.696Z,16.61
2022-09-28T10:01:19.469Z,16.70
2022-09-28T10:04:20.611Z,16.81
2022-09-28T10:06:49.924Z,16.70
2022-09-28T10:09:19.461Z,16.72
2022-09-28T10:11:50.031Z,16.88
2022-09-28T10:14:20.091Z,17.03
2022-09-28T10:16:53.838Z,17.15
2022-09-28T10:19:40.439Z,17.31
2022-09-28T10:22:28.155Z,17.43
2022-09-28T10:24:58.341Z,17.55
2022-09-28T10:27:28.042Z,17.29
2022-09-28T10:30:01.287Z,17.06
2022-09-28T10:32:39.002Z,16.88
2022-09-28T10:35:18.638Z,16.94
2022-09-28T10:37:55.181Z,17.10
2022-09-28T10:40:43.889Z,17.26
2022-09-28T10:43:31.694Z,17.30
2022-09-28T10:46:14.231Z,17.32
2022-09-28T10:48:45.935Z,17.34
2022-09-28T10:51:12.639Z,17.46
2022-09-28T10:53:40.442Z,17.54
2022-09-28T10:56:20.520Z,17.77
2022-09-28T10:58:49.590Z,17.77
2022-09-28T11:01:40.948Z,17.89
2022-09-28T11:04:19.231Z,17.90
2022-09-28T11:06:47.024Z,17.97
2022-09-28T11:09:36.837Z,17.94
2022-09-28T11:12:14.389Z,17.89
2022-09-28T11:14:43.835Z,17.81
2022-09-28T11:17:18.501Z,17.78
2022-09-28T11:19:46.653Z,17.66
2022-09-28T11:22:21.018Z,17.53
2022-09-28T11:24:48.530Z,17.49
2022-09-28T11:27:25.487Z,17.41
2022-09-28T11:33:06.938Z,17.51
2022-09-28T11:35:39.398Z,17.59
2022-09-28T11:38:12.304Z,17.67
2022-09-28T11:41:10.021Z,17.73
2022-09-28T11:44:04.174Z,17.83
2022-09-28T11:46:40.495Z,17.97
2022-09-28T11:49:13.578Z,18.17
2022-09-28T11:51:41.329Z,18.29
2022-09-28T11:54:15.332Z,18.40
2022-09-28T11:56:43.672Z,18.22
2022-09-28T11:59:13.410Z,18.16
2022-09-28T12:01:50.232Z,18.08
2022-09-28T12:04:24.343Z,17.92
2022-09-28T12:07:14.260Z,17.76
2022-09-28T12:09:45.679Z,17.85
2022-09-28T12:12:25.173Z,17.87
2022-09-28T12:14:57.228Z,18.06
2022-09-28T12:17:26.414Z,18.16
2022-09-28T12:19:56.813Z,18.20
2022-09-28T12:22:33.683Z,18.19
2022-09-28T12:25:01.761Z,18.18
2022-09-28T12:27:33.279Z,18.37
2022-09-28T12:30:00.011Z,18.56
2022-09-28T12:32:33.938Z,18.57
2022-09-28T12:35:01.128Z,18.66
2022-09-28T12:37:33.340Z,18.49
2022-09-28T12:40:19.413Z,18.34
2022-09-28T12:42:52.529Z,18.37
2022-09-28T12:45:32.863Z,18.46
2022-09-28T12:48:21.106Z,18.42
2022-09-28T12:51:00.337Z,18.28
2022-09-28T12:53:30.234Z,18.32
2022-09-28T12:56:04.052Z,18.36
2022-09-28T12:58:30.663Z,18.22
2022-09-28T13:01:07.827Z,18.27
2022-09-28T13:03:46.279Z,18.21
2022-09-28T13:06:19.461Z,18.30
2022-09-28T13:08:53.297Z,18.34
2022-09-28T13:11:33.156Z,18.30
2022-09-28T13:14:02.912Z,18.25
2022-09-28T13:16:43.824Z,18.17
2022-09-28T13:19:29.321Z,18.07
2022-09-28T13:22:10.103Z,17.95
2022-09-28T13:24:38.295Z,17.89
2022-09-28T13:27:10.418Z,17.87
2022-09-28T13:32:08.234Z,17.90
2022-09-28T13:34:35.982Z,17.88
2022-09-28T13:37:17.810Z,17.87
2022-09-28T13:39:44.446Z,17.98
2022-09-28T13:42:26.284Z,17.93
2022-09-28T13:45:00.235Z,17.87
2022-09-28T13:47:45.885Z,17.84
2022-09-28T13:50:25.719Z,17.77
2022-09-28T13:52:58.420Z,17.74
2022-09-28T13:55:43.833Z,17.77
2022-09-28T13:58:22.036Z,17.78
2022-09-28T14:01:01.042Z,17.88
2022-09-28T14:03:27.736Z,18.03
2022-09-28T14:05:54.395Z,18.10
2022-09-28T14:08:29.000Z,18.18
2022-09-28T14:11:15.634Z,18.24
2022-09-28T14:13:45.371Z,18.18
2022-09-28T14:16:18.221Z,18.09
2022-09-28T14:18:55.128Z,18.09
2022-09-28T14:21:21.798Z,18.10
2022-09-28T14:24:11.261Z,18.19
2022-09-28T14:26:47.031Z,17.98
2022-09-28T14:29:30.262Z,17.96
2022-09-28T14:32:19.209Z,17.96
2022-09-28T14:34:47.745Z,17.94
2022-09-28T14:37:38.108Z,17.95
2022-09-28T14:40:36.950Z,17.97
2022-09-28T14:43:25.504Z,17.98
2022-09-28T14:46:15.481Z,17.98
2022-09-28T14:48:48.406Z,17.98
2022-09-28T14:51:21.693Z,17.95
2022-09-28T14:53:50.064Z,17.90
2022-09-28T14:56:17.224Z,17.91
2022-09-28T14:58:44.027Z,17.92
2022-09-28T15:01:17.204Z,17.84
2022-09-28T15:03:46.530Z,17.82
2022-09-28T15:06:16.716Z,17.80
2022-09-28T15:08:43.677Z,17.78
2022-09-28T15:11:35.094Z,17.78
2022-09-28T15:14:06.255Z,17.77
2022-09-28T15:16:33.462Z,17.76
2022-09-28T15:19:13.420Z,17.68
2022-09-28T15:21:41.226Z,17.68
2022-09-28T15:24:31.574Z,17.68
2022-09-28T15:26:59.380Z,17.66
2022-09-28T15:29:31.130Z,17.63
2022-09-28T15:31:58.547Z,17.61
2022-09-28T15:34:47.952Z,17.58
2022-09-28T15:37:21.399Z,17.56
2022-09-28T15:39:49.009Z,17.54
2022-09-28T15:42:18.684Z,17.54
2022-09-28T15:45:14.938Z,17.54
2022-09-28T15:47:45.324Z,17.52
2022-09-28T15:50:24.323Z,17.49
2022-09-28T15:52:58.695Z,17.47
2022-09-28T15:55:28.379Z,17.45
2022-09-28T15:58:06.261Z,17.42
2022-09-28T16:00:34.233Z,17.40
2022-09-28T16:03:10.702Z,17.36
2022-09-28T16:05:48.458Z,17.32
2022-09-28T16:08:24.657Z,17.28
2022-09-28T16:10:53.517Z,17.22
2022-09-28T16:13:21.207Z,17.16
2022-09-28T16:15:55.497Z,17.11
2022-09-28T16:18:23.625Z,17.04
2022-09-28T16:20:54.847Z,16.98
2022-09-28T16:23:31.135Z,16.92
2022-09-28T16:26:00.563Z,16.87
2022-09-28T16:28:36.196Z,16.84
2022-09-28T16:31:12.201Z,16.80
2022-09-28T16:33:58.297Z,16.77
2022-09-28T16:36:29.997Z,16.72
2022-09-28T16:38:57.129Z,16.71
2022-09-28T16:41:26.424Z,16.68
2022-09-28T16:43:56.046Z,16.59
2022-09-28T16:46:24.586Z,16.61
2022-09-28T16:48:51.387Z,16.59
2022-09-28T16:51:19.145Z,16.56
2022-09-28T16:54:08.496Z,16.55
2022-09-28T16:56:36.264Z,16.52
2022-09-28T16:59:03.816Z,16.50
2022-09-28T17:01:31.286Z,16.50
2022-09-28T17:03:58.591Z,16.47
2022-09-28T17:06:26.085Z,16.44
2022-09-28T17:08:52.857Z,16.43
2022-09-28T17:11:23.988Z,16.40
2022-09-28T17:13:51.914Z,16.40
2022-09-28T17:16:18.631Z,16.35
2022-09-28T17:18:46.132Z,16.34
2022-09-28T17:21:15.851Z,16.31
2022-09-28T17:23:43.322Z,16.30
2022-09-28T17:26:16.918Z,16.25
2022-09-28T17:28:44.141Z,16.23
2022-09-28T17:31:15.301Z,16.21
2022-09-28T17:33:42.296Z,16.16
2022-09-28T17:36:16.416Z,16.12
2022-09-28T17:38:43.296Z,16.10
2022-09-28T17:41:19.353Z,16.06
2022-09-28T17:43:46.946Z,16.04
2022-09-28T17:46:22.901Z,16.00
2022-09-28T17:48:49.941Z,15.97
2022-09-28T17:51:16.602Z,15.94
2022-09-28T17:53:43.253Z,15.91
2022-09-28T17:56:12.113Z,15.87
2022-09-28T17:58:38.910Z,15.84
2022-09-28T18:01:05.672Z,15.82
2022-09-28T18:03:32.342Z,15.80
2022-09-28T18:06:01.244Z,15.78
2022-09-28T18:08:27.865Z,15.76
2022-09-28T18:10:54.775Z,15.75
2022-09-28T18:13:21.385Z,15.74
2022-09-28T18:15:50.299Z,15.72
2022-09-28T18:18:17.301Z,15.71
2022-09-28T18:20:44.069Z,15.68
2022-09-28T18:23:10.908Z,15.66
2022-09-28T18:25:41.417Z,15.63
2022-09-28T18:28:08.135Z,15.60
2022-09-28T18:30:38.633Z,15.58
2022-09-28T18:33:05.468Z,15.53
2022-09-28T18:35:32.078Z,15.47
2022-09-28T18:37:58.810Z,15.43
2022-09-28T18:40:25.956Z,15.39
2022-09-28T18:42:53.109Z,15.36
2022-09-28T18:45:21.487Z,15.33
2022-09-28T18:47:48.422Z,15.33
2022-09-28T18:50:18.380Z,15.33
2022-09-28T18:52:45.472Z,15.31
2022-09-28T18:55:12.194Z,15.31
2022-09-28T18:57:40.504Z,15.30
2022-09-28T19:00:09.722Z,15.29
2022-09-28T19:02:36.714Z,15.27
2022-09-28T19:05:03.636Z,15.23
2022-09-28T19:07:31.694Z,15.21
2022-09-28T19:09:58.313Z,15.17
2022-09-28T19:12:24.984Z,15.16
2022-09-28T19:14:51.753Z,15.14
2022-09-28T19:17:18.475Z,15.11
2022-09-28T19:19:45.098Z,15.12
2022-09-28T19:22:11.927Z,15.11
2022-09-28T19:24:38.758Z,15.15
2022-09-28T19:27:05.670Z,15.21
2022-09-28T19:29:32.392Z,15.24
2022-09-28T19:31:59.543Z,15.24
2022-09-28T19:34:30.398Z,15.25
2022-09-28T19:36:57.333Z,15.28
2022-09-28T19:39:23.991Z,15.30
2022-09-28T19:41:54.338Z,15.34
2022-09-28T19:44:27.232Z,15.33
2022-09-28T19:46:58.317Z,15.34
2022-09-28T19:49:26.125Z,15.35
2022-09-28T19:52:15.170Z,15.36
2022-09-28T19:54:43.965Z,15.37
2022-09-28T19:57:12.502Z,15.37
2022-09-28T19:59:39.127Z,15.38
2022-09-28T20:02:06.820Z,15.41
2022-09-28T20:04:33.708Z,15.42
2022-09-28T20:07:01.935Z,15.43
2022-09-28T20:09:28.792Z,15.42
2022-09-28T20:11:56.132Z,15.43
2022-09-28T20:14:25.799Z,15.45
2022-09-28T20:16:55.013Z,15.38
2022-09-28T20:19:23.290Z,15.36
2022-09-28T20:21:50.156Z,15.34
2022-09-28T20:24:17.406Z,15.35
2022-09-28T20:26:44.660Z,15.32
2022-09-28T20:29:11.521Z,15.33
2022-09-28T20:31:38.371Z,15.32
2022-09-28T20:34:05.733Z,15.32
2022-09-28T20:36:32.442Z,15.30
2022-09-28T20:39:01.830Z,15.28
2022-09-28T20:41:29.047Z,15.23
2022-09-28T20:44:00.500Z,15.23
2022-09-28T20:46:29.596Z,15.21
2022-09-28T20:48:57.943Z,15.16
2022-09-28T20:51:24.564Z,15.15
2022-09-28T20:53:52.268Z,15.20
2022-09-28T20:56:19.867Z,15.12
2022-09-28T20:58:46.790Z,15.09
2022-09-28T21:01:17.216Z,15.04
2022-09-28T21:03:48.290Z,15.03
2022-09-28T21:06:16.129Z,15.04
2022-09-28T21:08:44.178Z,15.03
2022-09-28T21:11:11.619Z,15.03
2022-09-28T21:13:41.626Z,15.00
2022-09-28T21:16:09.424Z,15.01
2022-09-28T21:18:36.167Z,14.99
2022-09-28T21:21:05.056Z,14.96
2022-09-28T21:23:32.887Z,14.90
2022-09-28T21:26:07.300Z,14.88
2022-09-28T21:28:34.577Z,14.81
2022-09-28T21:31:01.842Z,14.80
2022-09-28T21:33:28.597Z,14.76
2022-09-28T21:35:55.359Z,14.79
2022-09-28T21:38:22.129Z,14.75
2022-09-28T21:40:53.721Z,14.72
2022-09-28T21:43:20.330Z,14.71
2022-09-28T21:45:49.068Z,14.69
2022-09-28T21:48:17.905Z,14.67
2022-09-28T21:50:53.910Z,14.63
2022-09-28T21:53:20.503Z,14.64
2022-09-28T21:55:52.425Z,14.66
2022-09-28T21:58:26.104Z,14.60
2022-09-28T22:00:58.219Z,14.59
2022-09-28T22:03:25.863Z,14.61
2022-09-28T22:05:52.499Z,14.58
2022-09-28T22:08:20.684Z,14.59
2022-09-28T22:11:00.055Z,14.63
2022-09-28T22:13:27.906Z,14.60
2022-09-28T22:15:55.458Z,14.58
2022-09-28T22:18:26.535Z,14.61
2022-09-28T22:20:59.683Z,14.56
2022-09-28T22:23:27.315Z,14.45
2022-09-28T22:25:58.113Z,14.43
2022-09-28T22:28:24.796Z,14.40
2022-09-28T22:30:51.490Z,14.36
2022-09-28T22:33:18.263Z,14.37
2022-09-28T22:35:46.361Z,14.36
2022-09-28T22:38:13.787Z,14.36
2022-09-28T22:40:47.549Z,14.36
2022-09-28T22:43:14.196Z,14.28
2022-09-28T22:45:40.824Z,14.26
2022-09-28T22:48:07.577Z,14.25
2022-09-28T22:50:34.744Z,14.26
2022-09-28T22:53:02.691Z,14.28
2022-09-28T22:55:29.498Z,14.30
2022-09-28T22:58:21.009Z,14.31
2022-09-28T23:00:48.433Z,14.38
2022-09-28T23:03:15.069Z,14.32
2022-09-28T23:05:41.900Z,14.29
2022-09-28T23:08:09.210Z,14.25
2022-09-28T23:10:35.773Z,14.27
2022-09-28T23:13:02.611Z,14.21
2022-09-28T23:15:29.824Z,14.24
2022-09-28T23:17:57.026Z,14.28
2022-09-28T23:20:23.824Z,14.21
2022-09-28T23:22:50.778Z,14.12
2022-09-28T23:25:18.259Z,14.11
2022-09-28T23:27:46.323Z,14.15
2022-09-28T23:30:13.444Z,14.16
2022-09-28T23:32:40.718Z,14.15
2022-09-28T23:35:07.663Z,14.17
2022-09-28T23:37:34.329Z,14.13
2022-09-28T23:40:01.031Z,14.11
2022-09-28T23:42:27.599Z,14.12
2022-09-28T23:44:55.071Z,14.06
2022-09-28T23:47:21.711Z,14.04
2022-09-28T23:49:48.292Z,14.01
2022-09-28T23:52:14.853Z,14.02
2022-09-28T23:54:41.604Z,13.98
2022-09-28T23:57:09.238Z,13.85
2022-09-28T23:59:35.806Z,13.84
